Cuba, MO

10:47 PM CDT on July 24, 2014 (GMT -0500)
Jefferson City Memorial (KJEF) Elev 548 ft | 38.59 °N, 92.16 °W | Change Station

Current weather conditions updated 54 minutes ago

Clear
Clear
70 °F
Feels Like 70 °F
N
5
Wind Variable Wind from East

Tomorrow is forecast to be Warmer than today.

Today
High -- | Low -- °F
--% Chance of Precip.
Yesterday
High -- | Low -- °F
Precip. -- in
6:01 AM 8:22 PM
Waning Crescent, 3% visible
Pressure 30.02 in
Visibility 10.0 miles
Clouds Clear
Dew Point 56 °F
Humidity 61%
Rainfall 0.00 in
Snow Depth Not available.
UV 0 out of 12
Pollen 5.70 out of 12
Air Quality Not available.
Flu Activity Not available.
METAR KJEF 250253Z AUTO 10004KT 10SM CLR 21/13 A3006 RMK AO2 SLP166 T02110133 53002

More Conditions Fewer Conditions

Pressure 30.02 in
Visibility 10.0 miles
Clouds Clear
Dew Point 56 °F
Humidity 61%
Rainfall 0.00 in
Snow Depth Not available.
UV 0 out of 12
Pollen 5.70 out of 12
Air Quality Not available.
Flu Activity Not available.
METAR KJEF 250253Z AUTO 10004KT 10SM CLR 21/13 A3006 RMK AO2 SLP166 T02110133 53002

More Conditions Fewer Conditions

10-Day Weather Forecast

Almanac

Astronomy

Jul. 24, 2014 Rise Set
Actual Time 6:01 AM CDT 8:22 PM CDT
Civil Twilight 5:31 AM CDT 8:51 PM CDT
Nautical Twilight 4:55 AM CDT 9:28 PM CDT
Astronomical Twilight 4:14 AM CDT 10:08 PM CDT
Moon 4:09 AM CDT (7/24) 6:37 PM CDT (7/24)
Length of Visible Light 15h 19m
Length of Day
14h 20m
Tomorrow will be 1m 37s shorter.
Waning Crescent, 3% of the Moon is Illuminated
Today
Waning Crescent
Jul 26
New
Aug 3
First Quarter
Aug 10
Full
Aug 17
Last Quarter

Today's Extremes

State Highs State Lows

Community

WunderPhotos

Upload Photos

1,737,231 photos uploaded!

Nearby

Snow Depth

Station Depth Elevation
No new snow has been reported.

Earthquake Activity

City Distance Mag. Time & Date
No recent earthquake activity has been reported nearby.
Minimum magnitude displayed is 2.5.

Coastal Water Temperatures

Place Temperature
No Stations Reporting

Nearby Weather Stations

Station Location Temp. Dew Point Humidity Wind Precip. Elev Updated Type
Rosati, Missouri, St. James, MO 65.2 °F 56 °F 73% WNW  at  0.0 mph 0.00 in / hr 1053 ft 10:43 PM CDT Normal
Rural Crawford County, Steelville, MO 60.1 °F 54 °F 80% ENE  at  0.0 mph - / hr 1060 ft 10:46 PM CDT Rapid Fire
Rolla, Rolla, MO 67.1 °F 54 °F 62% NE  at  0.0 mph 0.00 in / hr 1164 ft 10:47 PM CDT Rapid Fire
RAWS SULLIVAN MO, Sullivan, MO 66 °F 54 °F 65% ESE  at  2 mph 0.00 in / hr 921 ft 10:00 PM CDT MADIS
College Hills, Rolla, MO 63.3 °F 56 °F 76% SW  at  0.0 mph 0.00 in / hr 1122 ft 10:47 PM CDT Normal
Old Silo Estates, Rolla, MO 65.7 °F 56 °F 71% SE  at  0.0 mph 0.00 in / hr 984 ft 10:47 PM CDT Rapid Fire
Rolla, Rolla, MO 68.4 °F 40 °F 35% North  at  0.0 mph 0.00 in / hr 1043 ft 10:46 PM CDT Normal

Show More Stations Show Fewer Stations